Spar Pavo — LATR7 — position and weather

sailwx.info

Track history (hours):
 
Tides and Currents Weather Stations Pressure Air Temp Water Temp Dewpoint Dewpoint Depression Visibility Wind Speed Wind Dir Waves Ship Positions

Spar Pavo

Last reported at 2018-Aug-14 14:58 UTC. Time now 2018-Aug-14 15:18 UTC.
Position N 57°36' E 011°40'.

Length 200 m; draft 12.9 m.

Type: Cargo ship. MMSI: 258731000.

Date/timePositionNaut miles runAvg speedWind from/ knotsBaromVisibWave heightAir tempDewpointWater temp
2018-Aug-14 14:58N 57°36' E 011°40'0 0.0
2018-Aug-14 14:28N 57°36' E 011°40'0 0.0
2018-Aug-14 13:58N 57°36' E 011°40'0 0.0
2018-Aug-14 13:28N 57°36' E 011°40'0 0.0
2018-Aug-14 12:58N 57°36' E 011°40'0 0.1
2018-Aug-14 12:28N 57°35' E 011°40'0 0.1
2018-Aug-14 11:58N 57°35' E 011°40'0 0.0
2018-Aug-14 11:28N 57°35' E 011°40'0 0.1
2018-Aug-14 10:58N 57°35' E 011°40'0 0.0
2018-Aug-14 10:28N 57°35' E 011°40'0 0.1
2018-Aug-14 09:58N 57°35' E 011°40'0 1.0
2018-Aug-14 09:30N 57°35' E 011°39'2 3.6
2018-Aug-14 09:01N 57°34' E 011°36'3 5.5
2018-Aug-14 08:31N 57°34' E 011°31'4 8.7
2018-Aug-14 08:00N 57°36' E 011°24'3 6.8
2018-Aug-14 07:30N 57°39' E 011°20'510.2
2018-Aug-14 07:00N 57°43' E 011°14'713.3
2018-Aug-14 06:31N 57°48' E 011°05'713.2
2018-Aug-14 06:00N 57°51' E 010°54'613.1
2018-Aug-14 05:30N 57°52' E 010°42'10212.8
2018-Aug-13 21:30N 57°42' E 007°31'612.0
2018-Aug-13 21:00N 57°42' E 007°20'612.0
2018-Aug-13 20:30N 57°42' E 007°09'611.9
2018-Aug-13 20:00N 57°42' E 006°58'2711.0
2018-Aug-13 17:33N 57°53' E 006°12'1611.7
2018-Aug-13 16:11N 58°04' E 005°48'311.9
2018-Aug-13 15:55N 58°06' E 005°44'511.9
2018-Aug-13 15:30N 58°09' E 005°37'612.1
2018-Aug-13 15:00N 58°13' E 005°28'612.4
2018-Aug-13 14:30N 58°17' E 005°19'612.7
2018-Aug-13 14:00N 58°21' E 005°10'612.8
2018-Aug-13 13:30N 58°25' E 005°00'713.0
2018-Aug-13 13:00N 58°26' E 004°48'23512.8
2018-Aug-12 18:39N 58°42' W 002°42'213.1
2018-Aug-12 18:29N 58°43' W 002°46'612.8
2018-Aug-12 18:00N 58°43' W 002°58'510.6
2018-Aug-12 17:30N 58°43' W 003°08'5 9.0
2018-Aug-12 16:59N 58°44' W 003°17'4 7.7
2018-Aug-12 16:30N 58°44' W 003°24'6 9.9
2018-Aug-12 15:57N 58°46' W 003°34'  
Track history (hours):
 
Tides and Currents Weather Stations Pressure Air Temp Water Temp Dewpoint Dewpoint Depression Visibility Wind Speed Wind Dir Waves Ship Positions

Spar Pavo

Last reported at 2018-Aug-14 14:58 UTC. Time now 2018-Aug-14 15:18 UTC.
Position N 57°36' E 011°40'.

Length 200 m; draft 12.9 m.

Type: Cargo ship. MMSI: 258731000.

Date/timePositionNaut miles runAvg speedWind from/ knotsBaromVisibWave heightAir tempDewpointWater temp
2018-Aug-14 14:58N 57°36' E 011°40'0 0.0
2018-Aug-14 14:28N 57°36' E 011°40'0 0.0
2018-Aug-14 13:58N 57°36' E 011°40'0 0.0
2018-Aug-14 13:28N 57°36' E 011°40'0 0.0
2018-Aug-14 12:58N 57°36' E 011°40'0 0.1
2018-Aug-14 12:28N 57°35' E 011°40'0 0.1
2018-Aug-14 11:58N 57°35' E 011°40'0 0.0
2018-Aug-14 11:28N 57°35' E 011°40'0 0.1
2018-Aug-14 10:58N 57°35' E 011°40'0 0.0
2018-Aug-14 10:28N 57°35' E 011°40'0 0.1
2018-Aug-14 09:58N 57°35' E 011°40'0 1.0
2018-Aug-14 09:30N 57°35' E 011°39'2 3.6
2018-Aug-14 09:01N 57°34' E 011°36'3 5.5
2018-Aug-14 08:31N 57°34' E 011°31'4 8.7
2018-Aug-14 08:00N 57°36' E 011°24'3 6.8
2018-Aug-14 07:30N 57°39' E 011°20'510.2
2018-Aug-14 07:00N 57°43' E 011°14'713.3
2018-Aug-14 06:31N 57°48' E 011°05'713.2
2018-Aug-14 06:00N 57°51' E 010°54'613.1
2018-Aug-14 05:30N 57°52' E 010°42'10212.8
2018-Aug-13 21:30N 57°42' E 007°31'612.0
2018-Aug-13 21:00N 57°42' E 007°20'612.0
2018-Aug-13 20:30N 57°42' E 007°09'611.9
2018-Aug-13 20:00N 57°42' E 006°58'2711.0
2018-Aug-13 17:33N 57°53' E 006°12'1611.7
2018-Aug-13 16:11N 58°04' E 005°48'311.9
2018-Aug-13 15:55N 58°06' E 005°44'511.9
2018-Aug-13 15:30N 58°09' E 005°37'612.1
2018-Aug-13 15:00N 58°13' E 005°28'612.4
2018-Aug-13 14:30N 58°17' E 005°19'612.7
2018-Aug-13 14:00N 58°21' E 005°10'612.8
2018-Aug-13 13:30N 58°25' E 005°00'713.0
2018-Aug-13 13:00N 58°26' E 004°48'23512.8
2018-Aug-12 18:39N 58°42' W 002°42'213.1
2018-Aug-12 18:29N 58°43' W 002°46'612.8
2018-Aug-12 18:00N 58°43' W 002°58'510.6
2018-Aug-12 17:30N 58°43' W 003°08'5 9.0
2018-Aug-12 16:59N 58°44' W 003°17'4 7.7
2018-Aug-12 16:30N 58°44' W 003°24'6 9.9
2018-Aug-12 15:57N 58°46' W 003°34'  

Dump ship's entire track history